Pride — ZDFD7 — position and weather

sailwx.info

Track history (hours):
 
Tides and Currents Weather Stations Pressure Air Temp Water Temp Dewpoint Dewpoint Depression Visibility Wind Speed Wind Dir Waves Ship Positions

Pride

Last reported at 2017-Jun-26 05:35 UTC. Time now 2017-Jun-26 19:07 UTC.
Position N 38°28' W 010°03'.

Length 88 m; draft 4.5 m.

Type: Cargo ship. MMSI: 236166000.

Date/timePositionNaut miles runAvg speedWind from/ knotsBaromVisibWave heightAir tempDewpointWater temp
2017-Jun-26 05:35N 38°28' W 010°03'110.4
2017-Jun-26 05:28N 38°29' W 010°03'1210.0
2017-Jun-26 04:17N 38°40' W 010°07'3 9.6
2017-Jun-26 03:56N 38°44' W 010°07'4 9.6
2017-Jun-26 03:30N 38°48' W 010°07'7 9.8
2017-Jun-26 02:48N 38°55' W 010°07'3 9.6
2017-Jun-26 02:30N 38°57' W 010°07'7 9.2
2017-Jun-26 01:43N 39°05' W 010°07'4 9.4
2017-Jun-26 01:16N 39°09' W 010°06'  
2017-Jun-23 07:43N 46°05' W 001°54'210.6
2017-Jun-23 07:29N 46°06' W 001°50'610.5
2017-Jun-23 06:57N 46°08' W 001°43'610.9
2017-Jun-23 06:22N 46°08' W 001°34'411.7
2017-Jun-23 06:00N 46°07' W 001°27'611.7
2017-Jun-23 05:30N 46°06' W 001°19'510.6
2017-Jun-23 05:00N 46°02' W 001°14'510.4
2017-Jun-23 04:31N 45°59' W 001°08'5 9.4
2017-Jun-23 04:00N 45°58' W 001°02'2 5.0
2017-Jun-23 03:30N 45°56' W 000°60'2 0.2
2017-Jun-22 13:06N 45°57' W 000°57'0 0.0
2017-Jun-22 13:00N 45°57' W 000°57'0 0.0
2017-Jun-22 09:44N 45°57' W 000°57'0 0.0
2017-Jun-22 08:53N 45°57' W 000°57'0 0.0
2017-Jun-22 08:23N 45°57' W 000°57'0 0.0
2017-Jun-22 07:59N 45°57' W 000°57'0 0.0
2017-Jun-22 07:29N 45°57' W 000°57'0 0.0
2017-Jun-22 06:59N 45°57' W 000°57'0 0.0
2017-Jun-22 06:28N 45°57' W 000°57'0 0.0
2017-Jun-22 05:55N 45°57' W 000°57'0 0.0
2017-Jun-22 05:18N 45°57' W 000°57'0 0.0
2017-Jun-22 02:13N 45°57' W 000°57'0 0.0
2017-Jun-22 01:58N 45°57' W 000°57'0 0.0
2017-Jun-22 01:27N 45°57' W 000°57'0 0.0
2017-Jun-22 00:49N 45°57' W 000°57'0 0.0
2017-Jun-22 00:29N 45°57' W 000°57'0 0.0
2017-Jun-21 23:59N 45°57' W 000°57'0 0.0
2017-Jun-21 23:28N 45°57' W 000°57'0 0.0
2017-Jun-21 22:55N 45°57' W 000°57'0 0.0
2017-Jun-21 22:26N 45°57' W 000°57'0 0.0
2017-Jun-21 21:59N 45°57' W 000°57'0 0.0
2017-Jun-21 21:27N 45°57' W 000°57'0 0.0
2017-Jun-21 20:41N 45°57' W 000°57'0 0.0
2017-Jun-21 20:30N 45°57' W 000°57'0 0.0
2017-Jun-21 20:00N 45°57' W 000°57'0 0.0
2017-Jun-21 19:25N 45°57' W 000°57'0 0.0
2017-Jun-21 18:55N 45°57' W 000°57'0 0.0
2017-Jun-21 18:23N 45°57' W 000°57'0 0.0
2017-Jun-21 17:56N 45°57' W 000°57'0 0.0
2017-Jun-21 16:20N 45°57' W 000°57'0 0.0
2017-Jun-21 15:53N 45°57' W 000°57'0 0.0
2017-Jun-21 15:22N 45°57' W 000°57'0 0.0
2017-Jun-21 14:58N 45°57' W 000°57'2 1.6
2017-Jun-21 13:40N 45°55' W 000°58'1 5.0
2017-Jun-21 13:29N 45°55' W 000°59'3 6.5
2017-Jun-21 13:00N 45°58' W 000°60'4 8.6
2017-Jun-21 12:30N 45°58' W 001°06'611.1
2017-Jun-21 12:00N 46°01' W 001°13'611.0
2017-Jun-21 11:30N 46°05' W 001°18'612.1
2017-Jun-21 11:00N 46°06' W 001°26'4 8.8
2017-Jun-21 10:30N 46°07' W 001°32'3 6.0
2017-Jun-21 10:01N 46°07' W 001°37'3 5.6
2017-Jun-21 09:30N 46°08' W 001°41'3 5.8
2017-Jun-21 09:00N 46°09' W 001°45'3 6.0
2017-Jun-21 08:30N 46°11' W 001°48'3 6.0
2017-Jun-21 08:00N 46°12' W 001°52'3 5.9
2017-Jun-21 07:30N 46°14' W 001°55'3 6.8
2017-Jun-21 07:00N 46°16' W 001°59'4 7.0
2017-Jun-21 06:30N 46°18' W 002°03'3 6.7
2017-Jun-21 06:00N 46°21' W 002°07'3 6.7
2017-Jun-21 05:30N 46°23' W 002°10'3 6.6
2017-Jun-21 05:00N 46°25' W 002°14'4 8.2
2017-Jun-21 04:30N 46°27' W 002°19'4 8.4
2017-Jun-21 04:00N 46°30' W 002°24'4 8.5
2017-Jun-21 03:30N 46°32' W 002°29'4 8.6
2017-Jun-21 03:00N 46°35' W 002°34'4 8.7
2017-Jun-21 02:30N 46°38' W 002°39'4 8.7
2017-Jun-21 02:00N 46°40' W 002°44'4 9.0
2017-Jun-21 01:30N 46°43' W 002°49'5 9.5
2017-Jun-21 01:00N 46°46' W 002°54'5 9.3
2017-Jun-21 00:30N 46°49' W 002°60'5 9.4
2017-Jun-21 00:00N 46°52' W 003°05'5 9.5
2017-Jun-20 23:30N 46°55' W 003°10'5 9.4
2017-Jun-20 23:00N 46°57' W 003°16'5 9.3
2017-Jun-20 22:30N 47°00' W 003°22'5 9.2
2017-Jun-20 22:00N 47°03' W 003°27'1 1.2
2017-Jun-20 21:30N 47°03' W 003°28'5 9.7
2017-Jun-20 21:00N 47°06' W 003°33'5 9.7
2017-Jun-20 20:30N 47°09' W 003°39'5 9.7
2017-Jun-20 20:00N 47°12' W 003°45'510.1
2017-Jun-20 19:30N 47°15' W 003°50'510.2
2017-Jun-20 19:00N 47°19' W 003°56'510.1
2017-Jun-20 18:30N 47°22' W 004°02'810.5
2017-Jun-20 17:48N 47°26' W 004°11'310.6
2017-Jun-20 17:30N 47°28' W 004°15'510.6
2017-Jun-20 17:00N 47°31' W 004°21'610.8
2017-Jun-20 16:26N 47°35' W 004°28'511.2
2017-Jun-20 16:00N 47°38' W 004°34'511.1
2017-Jun-20 15:30N 47°41' W 004°40'611.4
2017-Jun-20 15:01N 47°45' W 004°47'1111.1
2017-Jun-20 14:00N 47°52' W 004°60'1311.1
2017-Jun-20 12:48N 47°60' W 005°16'410.4
2017-Jun-20 12:24N 48°03' W 005°19'710.3
2017-Jun-20 11:44N 48°09' W 005°25'210.1
2017-Jun-20 11:30N 48°11' W 005°28'50 8.4
2017-Jun-20 05:34N 49°00' W 005°35'211.6
2017-Jun-20 05:25N 49°01' W 005°33'2211.3
2017-Jun-20 03:30N 49°14' W 005°06'510.7
2017-Jun-20 03:00N 49°17' W 004°59'510.3
2017-Jun-20 02:30N 49°20' W 004°53'4210.1
2017-Jun-19 22:22N 49°45' W 004°02'1011.2
2017-Jun-19 21:29N 49°51' W 003°49'511.5
2017-Jun-19 21:01N 49°55' W 003°43'611.7
2017-Jun-19 20:31N 49°58' W 003°35'611.8
2017-Jun-19 20:01N 50°02' W 003°28'611.8
2017-Jun-19 19:31N 50°05' W 003°21'611.2
2017-Jun-19 19:01N 50°08' W 003°13'611.1
2017-Jun-19 18:31N 50°11' W 003°06'510.6
2017-Jun-19 18:00N 50°14' W 002°59'510.0
2017-Jun-19 17:29N 50°17' W 002°52'5 9.7
2017-Jun-19 17:00N 50°20' W 002°47'5 9.5
2017-Jun-19 16:30N 50°23' W 002°41'5 9.4
2017-Jun-19 16:00N 50°25' W 002°35'6 9.2
2017-Jun-19 15:20N 50°29' W 002°27'4 9.4
2017-Jun-19 14:56N 50°32' W 002°23'4 8.8
2017-Jun-19 14:30N 50°36' W 002°25'2 0.0
2017-Jun-17 17:48N 50°34' W 002°26'1 4.2
2017-Jun-17 17:31N 50°35' W 002°25'2 3.8
2017-Jun-17 17:01N 50°37' W 002°23'0 0.0
2017-Jun-17 16:30N 50°37' W 002°23'0 0.1
2017-Jun-17 15:59N 50°37' W 002°23'0 0.0
2017-Jun-17 15:29N 50°37' W 002°23'0 0.0
2017-Jun-17 14:59N 50°37' W 002°23'0 0.0
2017-Jun-17 14:14N 50°37' W 002°23'0 0.0
2017-Jun-17 13:30N 50°37' W 002°23'0 0.0
2017-Jun-17 12:54N 50°37' W 002°23'0 0.1
2017-Jun-17 12:30N 50°37' W 002°23'0 0.0
2017-Jun-17 12:00N 50°37' W 002°23'0 0.0
2017-Jun-17 10:56N 50°37' W 002°23'0 0.0
2017-Jun-17 08:04N 50°37' W 002°23'0 0.0
2017-Jun-17 07:18N 50°37' W 002°23'0 0.0
2017-Jun-17 06:54N 50°37' W 002°23'0 0.0
2017-Jun-17 06:30N 50°37' W 002°23'0 0.0
2017-Jun-17 05:59N 50°37' W 002°23'0 0.0
2017-Jun-17 05:29N 50°37' W 002°23'0 0.0
2017-Jun-17 03:45N 50°37' W 002°23'0 0.1
2017-Jun-17 03:28N 50°37' W 002°23'0 0.0
2017-Jun-17 02:43N 50°37' W 002°23'0 0.0
2017-Jun-17 02:04N 50°37' W 002°23'0 0.0
2017-Jun-16 21:55N 50°37' W 002°23'19 9.3
2017-Jun-16 19:53N 50°30' W 001°55'711.3
2017-Jun-16 19:18N 50°30' W 001°45'311.5
2017-Jun-16 19:00N 50°31' W 001°40'611.7
2017-Jun-16 18:30N 50°31' W 001°30'612.0
2017-Jun-16 18:00N 50°31' W 001°21'612.3
2017-Jun-16 17:30N 50°31' W 001°11'711.8
2017-Jun-16 16:53N 50°31' W 000°60'411.3
2017-Jun-16 16:30N 50°31' W 000°53'510.9
2017-Jun-16 16:00N 50°31' W 000°44'510.2
2017-Jun-16 15:30N 50°32' W 000°36'5 9.2
2017-Jun-16 15:00N 50°32' W 000°29'9 8.8
2017-Jun-16 14:00N 50°32' W 000°15'4 8.4
2017-Jun-16 13:30N 50°31' W 000°09'4 8.1
2017-Jun-16 13:00N 50°32' W 000°02'4 8.2
2017-Jun-16 12:30N 50°33' E 000°04'4 8.3
2017-Jun-16 12:00N 50°34' E 000°10'4 8.6
2017-Jun-16 11:30N 50°35' E 000°17'4310.4
2017-Jun-16 07:20N 50°58' E 001°15'310.1
2017-Jun-16 07:00N 50°60' E 001°19'5 9.6
2017-Jun-16 06:30N 51°03' E 001°25'4 9.0
2017-Jun-16 06:00N 51°06' E 001°30'  
Track history (hours):
 
Tides and Currents Weather Stations Pressure Air Temp Water Temp Dewpoint Dewpoint Depression Visibility Wind Speed Wind Dir Waves Ship Positions

Pride

Last reported at 2017-Jun-26 05:35 UTC. Time now 2017-Jun-26 19:07 UTC.
Position N 38°28' W 010°03'.

Length 88 m; draft 4.5 m.

Type: Cargo ship. MMSI: 236166000.

Date/timePositionNaut miles runAvg speedWind from/ knotsBaromVisibWave heightAir tempDewpointWater temp
2017-Jun-26 05:35N 38°28' W 010°03'110.4
2017-Jun-26 05:28N 38°29' W 010°03'1210.0
2017-Jun-26 04:17N 38°40' W 010°07'3 9.6
2017-Jun-26 03:56N 38°44' W 010°07'4 9.6
2017-Jun-26 03:30N 38°48' W 010°07'7 9.8
2017-Jun-26 02:48N 38°55' W 010°07'3 9.6
2017-Jun-26 02:30N 38°57' W 010°07'7 9.2
2017-Jun-26 01:43N 39°05' W 010°07'4 9.4
2017-Jun-26 01:16N 39°09' W 010°06'  
2017-Jun-23 07:43N 46°05' W 001°54'210.6
2017-Jun-23 07:29N 46°06' W 001°50'610.5
2017-Jun-23 06:57N 46°08' W 001°43'610.9
2017-Jun-23 06:22N 46°08' W 001°34'411.7
2017-Jun-23 06:00N 46°07' W 001°27'611.7
2017-Jun-23 05:30N 46°06' W 001°19'510.6
2017-Jun-23 05:00N 46°02' W 001°14'510.4
2017-Jun-23 04:31N 45°59' W 001°08'5 9.4
2017-Jun-23 04:00N 45°58' W 001°02'2 5.0
2017-Jun-23 03:30N 45°56' W 000°60'2 0.2
2017-Jun-22 13:06N 45°57' W 000°57'0 0.0
2017-Jun-22 13:00N 45°57' W 000°57'0 0.0
2017-Jun-22 09:44N 45°57' W 000°57'0 0.0
2017-Jun-22 08:53N 45°57' W 000°57'0 0.0
2017-Jun-22 08:23N 45°57' W 000°57'0 0.0
2017-Jun-22 07:59N 45°57' W 000°57'0 0.0
2017-Jun-22 07:29N 45°57' W 000°57'0 0.0
2017-Jun-22 06:59N 45°57' W 000°57'0 0.0
2017-Jun-22 06:28N 45°57' W 000°57'0 0.0
2017-Jun-22 05:55N 45°57' W 000°57'0 0.0
2017-Jun-22 05:18N 45°57' W 000°57'0 0.0
2017-Jun-22 02:13N 45°57' W 000°57'0 0.0
2017-Jun-22 01:58N 45°57' W 000°57'0 0.0
2017-Jun-22 01:27N 45°57' W 000°57'0 0.0
2017-Jun-22 00:49N 45°57' W 000°57'0 0.0
2017-Jun-22 00:29N 45°57' W 000°57'0 0.0
2017-Jun-21 23:59N 45°57' W 000°57'0 0.0
2017-Jun-21 23:28N 45°57' W 000°57'0 0.0
2017-Jun-21 22:55N 45°57' W 000°57'0 0.0
2017-Jun-21 22:26N 45°57' W 000°57'0 0.0
2017-Jun-21 21:59N 45°57' W 000°57'0 0.0
2017-Jun-21 21:27N 45°57' W 000°57'0 0.0
2017-Jun-21 20:41N 45°57' W 000°57'0 0.0
2017-Jun-21 20:30N 45°57' W 000°57'0 0.0
2017-Jun-21 20:00N 45°57' W 000°57'0 0.0
2017-Jun-21 19:25N 45°57' W 000°57'0 0.0
2017-Jun-21 18:55N 45°57' W 000°57'0 0.0
2017-Jun-21 18:23N 45°57' W 000°57'0 0.0
2017-Jun-21 17:56N 45°57' W 000°57'0 0.0
2017-Jun-21 16:20N 45°57' W 000°57'0 0.0
2017-Jun-21 15:53N 45°57' W 000°57'0 0.0
2017-Jun-21 15:22N 45°57' W 000°57'0 0.0
2017-Jun-21 14:58N 45°57' W 000°57'2 1.6
2017-Jun-21 13:40N 45°55' W 000°58'1 5.0
2017-Jun-21 13:29N 45°55' W 000°59'3 6.5
2017-Jun-21 13:00N 45°58' W 000°60'4 8.6
2017-Jun-21 12:30N 45°58' W 001°06'611.1
2017-Jun-21 12:00N 46°01' W 001°13'611.0
2017-Jun-21 11:30N 46°05' W 001°18'612.1
2017-Jun-21 11:00N 46°06' W 001°26'4 8.8
2017-Jun-21 10:30N 46°07' W 001°32'3 6.0
2017-Jun-21 10:01N 46°07' W 001°37'3 5.6
2017-Jun-21 09:30N 46°08' W 001°41'3 5.8
2017-Jun-21 09:00N 46°09' W 001°45'3 6.0
2017-Jun-21 08:30N 46°11' W 001°48'3 6.0
2017-Jun-21 08:00N 46°12' W 001°52'3 5.9
2017-Jun-21 07:30N 46°14' W 001°55'3 6.8
2017-Jun-21 07:00N 46°16' W 001°59'4 7.0
2017-Jun-21 06:30N 46°18' W 002°03'3 6.7
2017-Jun-21 06:00N 46°21' W 002°07'3 6.7
2017-Jun-21 05:30N 46°23' W 002°10'3 6.6
2017-Jun-21 05:00N 46°25' W 002°14'4 8.2
2017-Jun-21 04:30N 46°27' W 002°19'4 8.4
2017-Jun-21 04:00N 46°30' W 002°24'4 8.5
2017-Jun-21 03:30N 46°32' W 002°29'4 8.6
2017-Jun-21 03:00N 46°35' W 002°34'4 8.7
2017-Jun-21 02:30N 46°38' W 002°39'4 8.7
2017-Jun-21 02:00N 46°40' W 002°44'4 9.0
2017-Jun-21 01:30N 46°43' W 002°49'5 9.5
2017-Jun-21 01:00N 46°46' W 002°54'5 9.3
2017-Jun-21 00:30N 46°49' W 002°60'5 9.4
2017-Jun-21 00:00N 46°52' W 003°05'5 9.5
2017-Jun-20 23:30N 46°55' W 003°10'5 9.4
2017-Jun-20 23:00N 46°57' W 003°16'5 9.3
2017-Jun-20 22:30N 47°00' W 003°22'5 9.2
2017-Jun-20 22:00N 47°03' W 003°27'1 1.2
2017-Jun-20 21:30N 47°03' W 003°28'5 9.7
2017-Jun-20 21:00N 47°06' W 003°33'5 9.7
2017-Jun-20 20:30N 47°09' W 003°39'5 9.7
2017-Jun-20 20:00N 47°12' W 003°45'510.1
2017-Jun-20 19:30N 47°15' W 003°50'510.2
2017-Jun-20 19:00N 47°19' W 003°56'510.1
2017-Jun-20 18:30N 47°22' W 004°02'810.5
2017-Jun-20 17:48N 47°26' W 004°11'310.6
2017-Jun-20 17:30N 47°28' W 004°15'510.6
2017-Jun-20 17:00N 47°31' W 004°21'610.8
2017-Jun-20 16:26N 47°35' W 004°28'511.2
2017-Jun-20 16:00N 47°38' W 004°34'511.1
2017-Jun-20 15:30N 47°41' W 004°40'611.4
2017-Jun-20 15:01N 47°45' W 004°47'1111.1
2017-Jun-20 14:00N 47°52' W 004°60'1311.1
2017-Jun-20 12:48N 47°60' W 005°16'410.4
2017-Jun-20 12:24N 48°03' W 005°19'710.3
2017-Jun-20 11:44N 48°09' W 005°25'210.1
2017-Jun-20 11:30N 48°11' W 005°28'50 8.4
2017-Jun-20 05:34N 49°00' W 005°35'211.6
2017-Jun-20 05:25N 49°01' W 005°33'2211.3
2017-Jun-20 03:30N 49°14' W 005°06'510.7
2017-Jun-20 03:00N 49°17' W 004°59'510.3
2017-Jun-20 02:30N 49°20' W 004°53'4210.1
2017-Jun-19 22:22N 49°45' W 004°02'1011.2
2017-Jun-19 21:29N 49°51' W 003°49'511.5
2017-Jun-19 21:01N 49°55' W 003°43'611.7
2017-Jun-19 20:31N 49°58' W 003°35'611.8
2017-Jun-19 20:01N 50°02' W 003°28'611.8
2017-Jun-19 19:31N 50°05' W 003°21'611.2
2017-Jun-19 19:01N 50°08' W 003°13'611.1
2017-Jun-19 18:31N 50°11' W 003°06'510.6
2017-Jun-19 18:00N 50°14' W 002°59'510.0
2017-Jun-19 17:29N 50°17' W 002°52'5 9.7
2017-Jun-19 17:00N 50°20' W 002°47'5 9.5
2017-Jun-19 16:30N 50°23' W 002°41'5 9.4
2017-Jun-19 16:00N 50°25' W 002°35'6 9.2
2017-Jun-19 15:20N 50°29' W 002°27'4 9.4
2017-Jun-19 14:56N 50°32' W 002°23'4 8.8
2017-Jun-19 14:30N 50°36' W 002°25'2 0.0
2017-Jun-17 17:48N 50°34' W 002°26'1 4.2
2017-Jun-17 17:31N 50°35' W 002°25'2 3.8
2017-Jun-17 17:01N 50°37' W 002°23'0 0.0
2017-Jun-17 16:30N 50°37' W 002°23'0 0.1
2017-Jun-17 15:59N 50°37' W 002°23'0 0.0
2017-Jun-17 15:29N 50°37' W 002°23'0 0.0
2017-Jun-17 14:59N 50°37' W 002°23'0 0.0
2017-Jun-17 14:14N 50°37' W 002°23'0 0.0
2017-Jun-17 13:30N 50°37' W 002°23'0 0.0
2017-Jun-17 12:54N 50°37' W 002°23'0 0.1
2017-Jun-17 12:30N 50°37' W 002°23'0 0.0
2017-Jun-17 12:00N 50°37' W 002°23'0 0.0
2017-Jun-17 10:56N 50°37' W 002°23'0 0.0
2017-Jun-17 08:04N 50°37' W 002°23'0 0.0
2017-Jun-17 07:18N 50°37' W 002°23'0 0.0
2017-Jun-17 06:54N 50°37' W 002°23'0 0.0
2017-Jun-17 06:30N 50°37' W 002°23'0 0.0
2017-Jun-17 05:59N 50°37' W 002°23'0 0.0
2017-Jun-17 05:29N 50°37' W 002°23'0 0.0
2017-Jun-17 03:45N 50°37' W 002°23'0 0.1
2017-Jun-17 03:28N 50°37' W 002°23'0 0.0
2017-Jun-17 02:43N 50°37' W 002°23'0 0.0
2017-Jun-17 02:04N 50°37' W 002°23'0 0.0
2017-Jun-16 21:55N 50°37' W 002°23'19 9.3
2017-Jun-16 19:53N 50°30' W 001°55'711.3
2017-Jun-16 19:18N 50°30' W 001°45'311.5
2017-Jun-16 19:00N 50°31' W 001°40'611.7
2017-Jun-16 18:30N 50°31' W 001°30'612.0
2017-Jun-16 18:00N 50°31' W 001°21'612.3
2017-Jun-16 17:30N 50°31' W 001°11'711.8
2017-Jun-16 16:53N 50°31' W 000°60'411.3
2017-Jun-16 16:30N 50°31' W 000°53'510.9
2017-Jun-16 16:00N 50°31' W 000°44'510.2
2017-Jun-16 15:30N 50°32' W 000°36'5 9.2
2017-Jun-16 15:00N 50°32' W 000°29'9 8.8
2017-Jun-16 14:00N 50°32' W 000°15'4 8.4
2017-Jun-16 13:30N 50°31' W 000°09'4 8.1
2017-Jun-16 13:00N 50°32' W 000°02'4 8.2
2017-Jun-16 12:30N 50°33' E 000°04'4 8.3
2017-Jun-16 12:00N 50°34' E 000°10'4 8.6
2017-Jun-16 11:30N 50°35' E 000°17'4310.4
2017-Jun-16 07:20N 50°58' E 001°15'310.1
2017-Jun-16 07:00N 50°60' E 001°19'5 9.6
2017-Jun-16 06:30N 51°03' E 001°25'4 9.0
2017-Jun-16 06:00N 51°06' E 001°30'  

Dump ship's entire track history